Time;durP1;ratioP1;P1;durP2;ratioP2;P2;SDS_P1;SDS_P2;PMS_P1;PMS_P2;Temp;Humidity;BMP_temperature;BMP_pressure;BME280_temperature;BME280_humidity;BME280_pressure;Samples;Min_cycle;Max_cycle;Signal;HPM_P1;HPM_P2
2021/11/03 00:01:36;;;;;;;6.90;2.72;;;;;;;5.92;87.14;99811.69;5050355;28;20064;-78
2021/11/03 00:04:04;;;;;;;4.78;2.78;;;;;;;5.90;87.23;99821.41;5058891;28;20041;-78
2021/11/03 00:06:31;;;;;;;4.88;2.65;;;;;;;5.88;87.33;99813.50;5039564;28;20717;-78
2021/11/03 00:09:02;;;;;;;6.80;2.50;;;;;;;5.87;87.03;99820.16;5053013;28;20492;-78
2021/11/03 00:11:30;;;;;;;6.75;2.65;;;;;;;5.87;87.43;99824.84;5056761;28;20127;-77
2021/11/03 00:13:57;;;;;;;5.07;2.70;;;;;;;5.87;87.25;99833.06;5047643;28;20122;-82
2021/11/03 00:16:26;;;;;;;7.82;3.45;;;;;;;5.88;87.22;99837.41;5051253;28;20408;-78
2021/11/03 00:18:53;;;;;;;6.57;3.00;;;;;;;5.87;87.13;99846.81;5059285;28;20051;-78
2021/11/03 00:21:20;;;;;;;5.28;2.83;;;;;;;5.84;87.28;99837.25;5049636;28;20045;-78
2021/11/03 00:23:50;;;;;;;7.60;2.85;;;;;;;5.84;87.22;99851.00;5053098;28;20045;-78
2021/11/03 00:26:17;;;;;;;10.43;3.35;;;;;;;5.84;87.41;99852.94;5051654;28;20076;-78
2021/11/03 00:28:44;;;;;;;4.95;3.13;;;;;;;5.84;87.57;99847.44;5058496;28;20040;-79
2021/11/03 00:31:11;;;;;;;5.38;2.55;;;;;;;5.83;87.55;99848.56;5046338;28;20037;-78
2021/11/03 00:33:38;;;;;;;5.85;2.67;;;;;;;5.82;87.54;99856.03;5062589;28;20048;-78
2021/11/03 00:36:04;;;;;;;4.72;2.67;;;;;;;5.82;87.24;99855.22;5060823;28;20044;-78
2021/11/03 00:38:32;;;;;;;4.82;2.67;;;;;;;5.81;87.35;99864.59;5063125;28;20131;-77
2021/11/03 00:40:59;;;;;;;6.18;2.60;;;;;;;5.78;87.61;99876.25;5062854;28;20049;-78
2021/11/03 00:43:26;;;;;;;5.65;2.60;;;;;;;5.77;87.48;99855.44;5045377;28;20106;-78
2021/11/03 00:45:53;;;;;;;8.68;3.20;;;;;;;5.76;87.38;99871.09;5044647;28;20072;-77
2021/11/03 00:48:20;;;;;;;6.20;2.22;;;;;;;5.74;87.40;99865.13;5060345;28;20059;-78
2021/11/03 00:50:48;;;;;;;5.00;2.95;;;;;;;5.73;87.52;99862.72;5044548;28;20481;-78
2021/11/03 00:53:15;;;;;;;5.13;2.58;;;;;;;5.72;87.61;99861.91;5060924;28;20105;-78
2021/11/03 00:55:43;;;;;;;4.78;2.35;;;;;;;5.72;87.10;99870.13;5052208;28;20117;-78
2021/11/03 00:58:10;;;;;;;7.30;2.40;;;;;;;5.69;87.04;99872.78;5061456;28;20051;-78
2021/11/03 01:00:37;;;;;;;7.22;2.60;;;;;;;5.66;87.55;99876.19;5061144;28;20072;-78
2021/11/03 01:03:06;;;;;;;7.03;2.40;;;;;;;5.66;87.39;99876.19;5063063;28;20044;-77
2021/11/03 01:05:38;;;;;;;4.60;2.35;;;;;;;5.62;87.39;99875.22;5057714;28;20048;-78
2021/11/03 01:08:07;;;;;;;9.13;2.67;;;;;;;5.61;87.60;99881.88;5058579;28;20166;-78
2021/11/03 01:10:36;;;;;;;5.13;2.47;;;;;;;5.57;87.76;99878.16;5043155;28;20040;-78
2021/11/03 01:13:03;;;;;;;6.35;3.15;;;;;;;5.57;87.78;99887.22;5038366;28;20072;-78
2021/11/03 01:15:30;;;;;;;6.28;2.45;;;;;;;5.59;87.75;99889.63;5060894;28;20060;-78
2021/11/03 01:17:57;;;;;;;6.75;2.45;;;;;;;5.59;87.64;99889.63;5058052;28;20550;-78
2021/11/03 01:20:25;;;;;;;6.88;2.38;;;;;;;5.58;87.54;99893.50;5059703;28;20083;-78
2021/11/03 01:22:53;;;;;;;4.03;2.53;;;;;;;5.56;87.40;99898.53;5036842;28;20049;-78
2021/11/03 01:25:22;;;;;;;5.30;2.33;;;;;;;5.53;87.51;99900.78;5059056;28;20035;-78
2021/11/03 01:27:49;;;;;;;7.10;2.90;;;;;;;5.52;87.46;99899.19;5062929;28;20029;-78
2021/11/03 01:30:19;;;;;;;8.25;2.92;;;;;;;5.49;87.54;99899.84;5052370;28;20052;-78
2021/11/03 01:32:47;;;;;;;7.00;2.40;;;;;;;5.49;87.38;99901.78;5033252;28;20164;-78
2021/11/03 01:35:15;;;;;;;5.88;2.42;;;;;;;5.49;87.50;99901.78;5035287;28;20492;-78
2021/11/03 01:37:42;;;;;;;6.07;4.10;;;;;;;5.49;87.45;99908.09;5060000;28;20088;-76
2021/11/03 01:40:12;;;;;;;5.53;2.22;;;;;;;5.47;87.48;99910.38;5059702;28;20076;-78
2021/11/03 01:42:40;;;;;;;4.55;2.45;;;;;;;5.48;87.49;99916.66;5057604;28;20076;-78
2021/11/03 01:45:10;;;;;;;3.33;1.92;;;;;;;5.46;87.59;99914.25;5045474;28;20090;-78
2021/11/03 01:47:43;;;;;;;12.52;2.20;;;;;;;5.47;87.53;99909.56;5041420;28;20045;-78
2021/11/03 01:50:31;;;;;;;4.93;1.98;;;;;;;5.46;87.43;99908.75;5058824;28;20135;-78
2021/11/03 01:53:04;;;;;;;6.43;2.67;;;;;;;5.43;87.49;99912.16;5052545;28;20649;-78
2021/11/03 01:55:32;;;;;;;9.43;2.28;;;;;;;5.40;87.63;99910.06;5045311;28;20484;-78
2021/11/03 01:58:05;;;;;;;7.82;2.33;;;;;;;5.40;87.45;99914.78;5041213;28;20036;-78
2021/11/03 02:00:35;;;;;;;3.20;1.60;;;;;;;5.39;87.34;99919.44;5044576;28;20115;-78
2021/11/03 02:03:08;;;;;;;5.20;1.80;;;;;;;5.36;88.15;99924.78;5057455;28;20563;-78
2021/11/03 02:05:37;;;;;;;5.75;2.08;;;;;;;5.38;87.60;99938.97;5057478;28;20130;-77
2021/11/03 02:08:06;;;;;;;7.80;2.47;;;;;;;5.36;87.63;99935.78;5057475;28;20071;-78
2021/11/03 02:10:33;;;;;;;5.05;1.60;;;;;;;5.35;88.21;99932.22;5059878;28;20037;-77
2021/11/03 02:13:01;;;;;;;7.70;1.75;;;;;;;5.33;87.97;99942.72;5052921;28;20072;-78
2021/11/03 02:15:28;;;;;;;3.13;1.70;;;;;;;5.31;88.01;99928.53;5058034;28;20037;-78
2021/11/03 02:17:56;;;;;;;6.13;1.80;;;;;;;5.34;87.63;99933.38;5062072;28;20956;-78
2021/11/03 02:20:25;;;;;;;5.53;2.30;;;;;;;5.33;87.59;99937.22;5041758;28;20052;-78
2021/11/03 02:23:24;;;;;;;5.90;2.05;;;;;;;5.29;88.07;99936.31;5038207;28;20041;-77
2021/11/03 02:26:09;;;;;;;6.93;1.70;;;;;;;5.29;88.06;99940.97;5040960;28;20084;-77
2021/11/03 02:28:40;;;;;;;4.07;1.90;;;;;;;5.31;87.77;99939.50;5044016;28;20136;-78
2021/11/03 02:31:08;;;;;;;5.00;1.67;;;;;;;5.31;87.96;99945.00;5042666;28;21199;-78
2021/11/03 02:33:37;;;;;;;7.85;1.90;;;;;;;5.31;87.60;99949.69;5056410;28;20143;-77
2021/11/03 02:36:07;;;;;;;5.15;1.98;;;;;;;5.29;87.92;99952.75;5057110;28;20082;-78
2021/11/03 02:38:38;;;;;;;6.82;1.48;;;;;;;5.29;87.98;99963.75;5055355;28;20041;-78
2021/11/03 02:41:24;;;;;;;5.47;1.75;;;;;;;5.29;88.01;99962.94;5042312;28;20048;-77
2021/11/03 02:43:58;;;;;;;3.53;1.23;;;;;;;5.30;87.94;99962.59;5032841;28;20053;-78
2021/11/03 02:46:26;;;;;;;6.10;2.47;;;;;;;5.30;88.06;99964.53;5038432;28;20094;-78
2021/11/03 02:48:51;;;;;;;3.78;1.65;;;;;;;5.29;88.12;99966.50;5038708;28;20561;-78
2021/11/03 02:51:32;;;;;;;4.30;1.77;;;;;;;5.29;87.79;99963.75;5056657;28;20056;-78
2021/11/03 02:54:06;;;;;;;10.00;3.20;;;;;;;5.28;87.80;99964.88;5053944;28;20095;-77
2021/11/03 02:56:38;;;;;;;8.82;1.92;;;;;;;5.28;88.08;99967.59;5033820;28;20524;-78
2021/11/03 02:59:06;;;;;;;7.40;2.40;;;;;;;5.28;88.06;99973.09;5052846;28;20060;-77
2021/11/03 03:01:36;;;;;;;5.50;1.85;;;;;;;5.28;87.92;99973.09;5055957;28;20289;-78
2021/11/03 03:04:09;;;;;;;6.28;1.70;;;;;;;5.26;88.25;99980.88;5057757;28;20048;-77
2021/11/03 03:06:36;;;;;;;7.10;2.13;;;;;;;5.25;88.08;99981.97;5040816;28;20065;-77
2021/11/03 03:09:05;;;;;;;4.97;1.40;;;;;;;5.26;88.27;99983.59;5040201;28;20060;-78
2021/11/03 03:11:34;;;;;;;3.45;1.98;;;;;;;5.24;88.08;99983.09;5041469;28;20043;-77
2021/11/03 03:14:02;;;;;;;6.40;1.40;;;;;;;5.25;88.32;99981.97;5057491;28;20099;-78
2021/11/03 03:16:29;;;;;;;7.55;1.40;;;;;;;5.24;88.18;99982.31;5040182;28;20098;-78
2021/11/03 03:18:56;;;;;;;7.38;2.00;;;;;;;5.25;87.68;99994.88;5040190;28;20040;-78
2021/11/03 03:21:26;;;;;;;4.22;1.67;;;;;;;5.24;88.30;99991.34;5054834;28;20051;-78
2021/11/03 03:23:55;;;;;;;8.27;1.95;;;;;;;5.24;88.32;99994.09;5057643;28;20070;-77
2021/11/03 03:26:23;;;;;;;3.35;1.55;;;;;;;5.22;88.03;99999.09;5059898;28;20091;-78
2021/11/03 03:28:51;;;;;;;6.40;1.95;;;;;;;5.19;88.10;99991.50;5061485;28;20040;-78
2021/11/03 03:31:18;;;;;;;4.80;1.50;;;;;;;5.16;88.55;99986.72;5060014;28;20097;-77
2021/11/03 03:33:47;;;;;;;8.10;1.70;;;;;;;5.17;88.03;99996.53;5060678;28;20050;-78
2021/11/03 03:36:14;;;;;;;5.70;1.42;;;;;;;5.15;88.22;99990.56;5059754;28;20487;-78
2021/11/03 03:38:42;;;;;;;5.40;1.67;;;;;;;5.16;88.44;99992.19;5063369;28;20816;-77
2021/11/03 03:41:09;;;;;;;8.32;1.92;;;;;;;5.16;88.46;100008.66;5062468;28;20045;-77
2021/11/03 03:43:37;;;;;;;4.82;1.45;;;;;;;5.15;88.24;100007.03;5059227;28;20049;-78
2021/11/03 03:46:04;;;;;;;4.55;1.08;;;;;;;5.16;88.33;100010.59;5055065;28;20048;-77
2021/11/03 03:48:32;;;;;;;4.97;1.20;;;;;;;5.13;88.05;100017.53;5063031;28;20036;-77
2021/11/03 03:50:59;;;;;;;4.68;1.65;;;;;;;5.12;88.21;100017.84;5029219;28;20064;-77
2021/11/03 03:53:26;;;;;;;5.78;1.48;;;;;;;5.10;88.44;100014.63;5059609;28;20125;-78
2021/11/03 03:56:11;;;;;;;4.07;1.08;;;;;;;5.10;88.36;100015.44;5056807;28;20052;-77
2021/11/03 03:58:39;;;;;;;5.57;1.20;;;;;;;5.10;88.54;100031.91;5062476;28;20040;-77
2021/11/03 04:01:06;;;;;;;4.13;1.58;;;;;;;5.09;88.25;100029.47;5062021;28;20063;-78
2021/11/03 04:03:34;;;;;;;7.28;1.13;;;;;;;5.09;88.52;100040.44;5060141;28;20041;-77
2021/11/03 04:06:01;;;;;;;6.70;2.50;;;;;;;5.08;88.52;100028.69;5059625;28;20097;-77
2021/11/03 04:08:29;;;;;;;6.03;1.92;;;;;;;5.09;88.28;100034.97;5062397;28;20048;-78
2021/11/03 04:10:57;;;;;;;9.40;2.05;;;;;;;5.08;88.40;100033.38;5043248;28;20381;-78
2021/11/03 04:13:24;;;;;;;6.32;1.88;;;;;;;5.06;88.45;100036.41;5064779;28;20070;-77
2021/11/03 04:15:52;;;;;;;8.35;1.42;;;;;;;5.05;88.50;100039.50;5065487;28;20044;-77
2021/11/03 04:18:21;;;;;;;2.78;1.38;;;;;;;5.04;88.51;100033.19;5062821;28;20041;-78
2021/11/03 04:20:49;;;;;;;4.78;1.30;;;;;;;5.04;88.61;100035.13;5040057;28;20064;-78
2021/11/03 04:23:16;;;;;;;9.77;2.13;;;;;;;5.05;88.63;100050.47;5040061;28;20048;-77
2021/11/03 04:25:43;;;;;;;2.83;1.00;;;;;;;5.06;88.62;100041.09;5046493;28;20045;-77
2021/11/03 04:28:10;;;;;;;8.73;1.30;;;;;;;5.08;88.25;100053.38;5045986;28;20076;-78
2021/11/03 04:30:38;;;;;;;4.28;0.98;;;;;;;5.08;88.60;100055.31;5044610;28;20044;-77
2021/11/03 04:33:06;;;;;;;5.82;1.38;;;;;;;5.09;88.40;100060.47;5041160;28;20164;-78
2021/11/03 04:35:34;;;;;;;4.57;1.25;;;;;;;5.08;88.62;100061.63;5059890;28;20118;-78
2021/11/03 04:38:02;;;;;;;3.63;0.98;;;;;;;5.06;88.49;100050.13;5062325;28;20036;-78
2021/11/03 04:40:29;;;;;;;4.68;1.67;;;;;;;5.06;88.44;100063.84;5059621;28;20044;-77
2021/11/03 04:42:57;;;;;;;6.95;1.90;;;;;;;5.05;88.79;100062.25;5058660;28;20076;-77
2021/11/03 04:45:24;;;;;;;6.88;1.30;;;;;;;5.05;88.54;100061.44;5062335;28;20067;-77
2021/11/03 04:47:52;;;;;;;3.17;1.02;;;;;;;5.04;88.79;100063.38;5055821;28;20067;-77
2021/11/03 04:50:25;;;;;;;6.80;1.15;;;;;;;5.05;88.85;100065.00;5058529;28;20044;-78
2021/11/03 04:52:52;;;;;;;7.78;0.98;;;;;;;5.06;88.67;100057.56;5060122;28;20048;-78
2021/11/03 04:55:19;;;;;;;3.85;1.40;;;;;;;5.05;88.77;100062.25;5056594;28;20049;-78
2021/11/03 04:57:51;;;;;;;7.18;1.00;;;;;;;5.05;88.81;100077.91;5061179;28;20075;-77
2021/11/03 05:00:26;;;;;;;7.57;1.92;;;;;;;5.04;88.90;100077.09;5062072;28;20071;-77
2021/11/03 05:02:53;;;;;;;9.77;1.40;;;;;;;5.04;89.18;100077.09;5060775;28;20094;-78
2021/11/03 05:05:21;;;;;;;10.07;2.03;;;;;;;5.03;88.95;100086.44;5044471;28;20132;-78
2021/11/03 05:07:48;;;;;;;3.35;1.05;;;;;;;5.04;89.03;100095.50;5057125;28;20557;-78
2021/11/03 05:10:17;;;;;;;7.78;0.93;;;;;;;5.04;89.10;100098.22;5060619;28;20040;-77
2021/11/03 05:12:44;;;;;;;2.72;1.38;;;;;;;5.03;88.87;100102.91;5058123;28;20041;-78
2021/11/03 05:15:11;;;;;;;4.95;1.02;;;;;;;5.05;88.90;100099.84;5063180;28;20637;-77
2021/11/03 05:17:38;;;;;;;6.72;1.40;;;;;;;5.04;89.11;100099.03;5060590;28;20132;-77
2021/11/03 05:20:06;;;;;;;3.70;1.40;;;;;;;5.04;89.15;100106.47;5060278;28;20135;-78
2021/11/03 05:22:33;;;;;;;4.45;0.93;;;;;;;5.05;89.09;100110.81;5055021;28;20091;-78
2021/11/03 05:25:00;;;;;;;4.10;0.88;;;;;;;5.06;89.35;100120.66;5041154;28;20075;-78
2021/11/03 05:27:27;;;;;;;3.50;0.98;;;;;;;5.07;89.05;100127.75;5042959;28;20101;-77
2021/11/03 05:29:54;;;;;;;4.18;1.00;;;;;;;5.07;89.23;100122.28;5041563;28;20068;-77
2021/11/03 05:32:23;;;;;;;10.65;1.48;;;;;;;5.07;89.16;100125.84;5063513;28;20555;-77
2021/11/03 05:34:50;;;;;;;3.83;1.00;;;;;;;5.08;89.43;100124.72;5043858;28;20045;-78
2021/11/03 05:37:19;;;;;;;9.20;2.53;;;;;;;5.09;89.16;100123.56;5046032;28;20086;-78
2021/11/03 05:39:51;;;;;;;5.68;1.17;;;;;;;5.09;89.18;100140.03;5057097;28;20055;-77
2021/11/03 05:42:18;;;;;;;3.47;0.82;;;;;;;5.10;89.23;100135.34;5058418;28;20185;-78
2021/11/03 05:44:44;;;;;;;4.78;1.20;;;;;;;5.10;89.38;100147.13;5040390;28;20044;-77
2021/11/03 05:47:20;;;;;;;7.32;0.90;;;;;;;5.09;89.12;100140.03;5059158;28;20125;-77
2021/11/03 05:49:48;;;;;;;4.95;0.70;;;;;;;5.09;89.00;100139.22;5040466;28;20148;-77
2021/11/03 05:52:15;;;;;;;3.03;0.88;;;;;;;5.07;89.39;100142.28;5035653;28;20484;-78
2021/11/03 05:54:42;;;;;;;8.80;1.20;;;;;;;5.08;89.37;100145.84;5056831;28;20063;-77
2021/11/03 05:57:20;;;;;;;4.93;0.80;;;;;;;5.04;89.20;100131.97;5040903;28;20468;-78
2021/11/03 05:59:48;;;;;;;6.97;1.25;;;;;;;5.05;89.38;100143.75;5058677;28;20064;-78
2021/11/03 06:02:15;;;;;;;4.22;0.90;;;;;;;5.05;89.09;100149.22;5039073;28;20070;-78
2021/11/03 06:04:42;;;;;;;7.10;1.00;;;;;;;5.05;89.01;100154.72;5056312;28;20090;-78
2021/11/03 06:07:10;;;;;;;4.32;1.15;;;;;;;5.03;88.94;100159.72;5059149;28;20048;-78
2021/11/03 06:09:38;;;;;;;4.63;1.42;;;;;;;5.02;89.21;100156.19;5058732;28;20122;-78
2021/11/03 06:12:05;;;;;;;5.03;0.98;;;;;;;5.01;89.15;100160.03;5053126;28;20048;-77
2021/11/03 06:14:32;;;;;;;5.65;0.80;;;;;;;5.00;89.02;100163.94;5060486;28;20562;-78
2021/11/03 06:16:59;;;;;;;4.70;0.82;;;;;;;4.99;89.14;100167.78;5041004;28;20080;-77
2021/11/03 06:19:27;;;;;;;6.22;1.27;;;;;;;4.97;88.86;100175.53;5058672;28;20059;-78
2021/11/03 06:21:54;;;;;;;4.53;0.82;;;;;;;4.94;89.37;100176.19;5059330;28;20037;-78
2021/11/03 06:24:22;;;;;;;3.33;0.77;;;;;;;4.94;89.21;100187.16;5043038;28;20079;-77
2021/11/03 06:26:50;;;;;;;5.57;1.00;;;;;;;4.92;89.31;100194.91;5041205;28;20072;-78
2021/11/03 06:29:17;;;;;;;2.47;1.08;;;;;;;4.90;89.23;100197.13;5055842;28;20446;-78
2021/11/03 06:31:43;;;;;;;8.80;1.40;;;;;;;4.90;88.98;100183.41;5055947;28;20083;-78
2021/11/03 06:34:10;;;;;;;5.40;0.90;;;;;;;4.88;89.14;100205.69;5056532;28;20186;-77
2021/11/03 06:36:37;;;;;;;6.00;0.90;;;;;;;4.86;88.95;100205.22;5056181;28;20083;-77
2021/11/03 06:39:05;;;;;;;2.97;0.93;;;;;;;4.86;89.18;100202.47;5059135;28;20053;-77
2021/11/03 06:41:35;;;;;;;3.75;1.02;;;;;;;4.85;89.36;100202.78;5041368;28;20040;-78
2021/11/03 06:44:03;;;;;;;2.65;0.95;;;;;;;4.85;89.06;100198.09;5042621;28;20123;-77
2021/11/03 06:46:30;;;;;;;9.00;2.10;;;;;;;4.86;89.38;100223.59;5058190;28;20056;-78
2021/11/03 06:48:57;;;;;;;7.30;0.90;;;;;;;4.86;88.96;100215.38;5054844;28;20082;-78
2021/11/03 06:51:24;;;;;;;4.10;0.88;;;;;;;4.85;88.81;100213.75;5059355;28;20036;-78
2021/11/03 06:53:51;;;;;;;3.53;0.88;;;;;;;4.83;88.93;100213.25;5053554;28;20052;-78
2021/11/03 06:56:18;;;;;;;7.15;1.30;;;;;;;4.83;89.10;100221.50;5040552;28;21055;-77
2021/11/03 06:58:45;;;;;;;5.60;1.05;;;;;;;4.82;88.95;100223.44;5040424;28;20499;-77
2021/11/03 07:01:12;;;;;;;10.00;1.40;;;;;;;4.80;88.92;100230.34;5037189;28;20075;-78
2021/11/03 07:03:41;;;;;;;5.10;1.00;;;;;;;4.79;89.44;100212.31;5053555;28;20505;-78
2021/11/03 07:06:08;;;;;;;2.03;0.77;;;;;;;4.79;89.50;100224.06;5039569;28;20123;-77
2021/11/03 07:08:35;;;;;;;7.60;1.35;;;;;;;4.81;89.28;100224.56;5058790;28;20132;-78
2021/11/03 07:11:02;;;;;;;4.43;1.67;;;;;;;4.82;89.73;100211.63;5051402;28;20056;-77
2021/11/03 07:13:30;;;;;;;4.32;1.25;;;;;;;4.83;89.20;100224.22;5059971;28;20756;-79
2021/11/03 07:15:57;;;;;;;8.40;1.30;;;;;;;4.83;89.28;100226.97;5048885;28;20103;-78
2021/11/03 07:18:25;;;;;;;5.50;1.58;;;;;;;4.85;89.55;100227.47;5034891;28;20048;-78
2021/11/03 07:20:56;;;;;;;4.75;1.30;;;;;;;4.87;89.37;100230.72;5054550;28;20450;-78
2021/11/03 07:23:24;;;;;;;4.18;1.45;;;;;;;4.87;89.41;100239.72;5040681;28;20157;-78
2021/11/03 07:25:53;;;;;;;5.10;1.73;;;;;;;4.90;89.65;100252.00;5060599;28;20032;-78
2021/11/03 07:28:21;;;;;;;5.43;1.15;;;;;;;4.91;89.66;100254.44;5059263;28;20410;-81
2021/11/03 07:30:48;;;;;;;8.90;1.23;;;;;;;4.95;89.69;100253.78;5053662;28;20076;-81
2021/11/03 07:33:15;;;;;;;5.10;1.33;;;;;;;4.98;89.65;100259.44;5040136;28;20076;-78
2021/11/03 07:35:43;;;;;;;5.28;1.27;;;;;;;5.02;89.96;100268.66;5058529;28;20124;-80
2021/11/03 07:38:11;;;;;;;4.65;1.35;;;;;;;5.05;89.87;100267.19;5051383;28;20052;-80
2021/11/03 07:40:49;;;;;;;5.95;1.40;;;;;;;5.09;89.86;100266.22;5041805;28;20049;-78
2021/11/03 07:43:19;;;;;;;4.97;1.27;;;;;;;5.13;90.39;100280.94;5053554;28;20060;-78
2021/11/03 07:45:48;;;;;;;5.28;1.25;;;;;;;5.15;90.48;100278.69;5044303;28;20075;-78
2021/11/03 07:48:16;;;;;;;6.85;1.90;;;;;;;5.18;90.02;100286.28;5025131;28;20059;-78
2021/11/03 07:50:47;;;;;;;3.67;1.17;;;;;;;5.22;90.04;100279.00;5055243;28;20137;-78
2021/11/03 07:53:15;;;;;;;5.57;1.30;;;;;;;5.28;90.24;100285.16;5056607;28;20136;-78
2021/11/03 07:55:45;;;;;;;6.95;1.35;;;;;;;5.30;90.35;100297.41;5062509;28;20045;-79
2021/11/03 07:58:20;;;;;;;5.82;1.33;;;;;;;5.36;90.37;100298.88;5051395;28;20127;-78
2021/11/03 08:00:47;;;;;;;11.50;1.90;;;;;;;5.41;90.42;100300.66;5048696;28;20064;-78
2021/11/03 08:03:15;;;;;;;7.30;1.85;;;;;;;5.47;90.19;100310.38;5054140;28;20061;-79
2021/11/03 08:05:42;;;;;;;7.95;2.60;;;;;;;5.52;90.41;100308.28;5055306;28;20060;-79
2021/11/03 08:08:11;;;;;;;6.78;1.98;;;;;;;5.59;90.51;100317.97;5036338;28;20048;-79
2021/11/03 08:10:42;;;;;;;3.25;1.48;;;;;;;5.66;90.84;100313.63;5060491;28;20044;-79
2021/11/03 08:13:17;;;;;;;7.25;1.73;;;;;;;5.71;90.73;100320.88;5023170;28;20086;-78
2021/11/03 08:15:46;;;;;;;6.78;1.40;;;;;;;5.77;90.64;100325.88;5055140;28;20589;-78
2021/11/03 08:18:15;;;;;;;4.68;1.77;;;;;;;5.84;90.43;100325.41;5052255;28;20032;-78
2021/11/03 08:20:43;;;;;;;9.18;1.55;;;;;;;5.88;90.38;100321.69;5061715;28;20050;-79
2021/11/03 08:23:11;;;;;;;4.63;1.25;;;;;;;5.93;90.53;100339.97;5058247;28;20041;-79
2021/11/03 08:25:39;;;;;;;5.35;1.63;;;;;;;5.97;90.54;100346.44;5060363;28;20045;-78
2021/11/03 08:28:06;;;;;;;11.43;2.38;;;;;;;6.02;90.46;100349.00;5051157;28;20132;-79
2021/11/03 08:30:34;;;;;;;2.92;1.40;;;;;;;6.08;90.44;100353.22;5056344;28;20131;-82
2021/11/03 08:33:09;;;;;;;7.68;2.05;;;;;;;6.10;90.23;100354.50;5051659;28;20688;-78
2021/11/03 08:35:40;;;;;;;8.02;1.55;;;;;;;6.12;90.04;100360.47;5032122;28;20041;-78
2021/11/03 08:38:10;;;;;;;5.22;1.70;;;;;;;6.16;90.38;100355.16;5056050;28;20063;-79
2021/11/03 08:40:37;;;;;;;5.38;1.35;;;;;;;6.21;90.12;100357.72;5063431;28;20087;-79
2021/11/03 08:43:08;;;;;;;8.38;2.70;;;;;;;6.25;90.10;100364.16;5064379;28;20101;-78
2021/11/03 08:45:36;;;;;;;6.25;1.50;;;;;;;6.28;90.02;100363.53;5052007;28;20126;-79
2021/11/03 08:48:03;;;;;;;3.17;1.92;;;;;;;6.34;89.97;100373.22;5056774;28;20067;-79
2021/11/03 08:50:35;;;;;;;5.20;1.13;;;;;;;6.38;90.11;100382.44;5059230;28;20468;-78
2021/11/03 08:53:03;;;;;;;6.93;1.52;;;;;;;6.45;90.12;100382.75;5048712;28;20041;-78
2021/11/03 08:55:31;;;;;;;5.90;1.08;;;;;;;6.54;89.87;100378.03;5032798;28;20045;-79
2021/11/03 08:58:00;;;;;;;3.47;1.40;;;;;;;6.63;90.21;100376.06;5053142;28;20048;-79
2021/11/03 09:00:31;;;;;;;6.68;1.58;;;;;;;6.72;89.83;100374.09;5059224;28;20048;-79
2021/11/03 09:02:59;;;;;;;3.30;0.70;;;;;;;6.82;89.82;100381.19;5059868;28;20484;-78
2021/11/03 09:05:28;;;;;;;6.28;1.13;;;;;;;6.89;89.88;100388.94;5056912;28;20068;-78
2021/11/03 09:07:55;;;;;;;1.42;0.70;;;;;;;6.94;89.66;100386.81;5058395;28;20106;-78
2021/11/03 09:10:25;;;;;;;5.43;1.10;;;;;;;6.96;89.50;100387.31;5051717;28;20495;-79
2021/11/03 09:12:52;;;;;;;2.78;0.70;;;;;;;6.98;89.48;100381.47;5053423;28;20088;-81
2021/11/03 09:15:19;;;;;;;6.32;1.08;;;;;;;7.01;89.43;100380.81;5045702;28;20055;-81
2021/11/03 09:17:52;;;;;;;6.60;1.27;;;;;;;6.99;89.50;100377.59;5034958;28;20049;-82
2021/11/03 09:20:20;;;;;;;4.93;1.67;;;;;;;6.97;89.15;100385.34;5023850;28;20488;-81
2021/11/03 09:22:47;;;;;;;5.57;1.15;;;;;;;6.95;89.21;100391.19;5054720;28;20047;-82
2021/11/03 09:25:20;;;;;;;2.90;1.00;;;;;;;6.93;88.73;100390.72;5039297;28;20553;-81
2021/11/03 09:27:47;;;;;;;11.57;1.25;;;;;;;6.92;89.07;100391.03;5050411;28;20082;-82
2021/11/03 09:30:21;;;;;;;6.88;1.80;;;;;;;6.92;89.16;100405.59;5033868;28;20055;-82
2021/11/03 09:32:52;;;;;;;4.78;1.02;;;;;;;6.92;88.95;100407.53;5059355;28;20033;-82
2021/11/03 09:35:20;;;;;;;3.35;0.65;;;;;;;6.93;89.03;100409.97;5037220;28;20048;-81
2021/11/03 09:37:48;;;;;;;6.95;1.30;;;;;;;6.95;88.92;100406.88;5040476;28;20056;-82
2021/11/03 09:40:24;;;;;;;3.75;0.80;;;;;;;6.95;88.58;100409.63;5060716;28;20098;-81
2021/11/03 09:42:53;;;;;;;5.15;1.63;;;;;;;6.98;88.91;100409.78;5037416;28;20499;-81
2021/11/03 09:45:25;;;;;;;4.15;1.10;;;;;;;6.98;88.52;100414.50;5049586;28;20051;-82
2021/11/03 09:48:03;;;;;;;6.68;1.13;;;;;;;7.02;88.78;100420.94;5052629;28;20052;-81
2021/11/03 09:50:35;;;;;;;4.07;0.80;;;;;;;7.04;88.61;100422.22;5034447;28;20045;-82
2021/11/03 09:53:22;;;;;;;6.28;1.38;;;;;;;7.06;88.34;100427.41;5050860;28;20078;-82
2021/11/03 09:55:50;;;;;;;3.63;1.10;;;;;;;7.10;88.30;100431.09;5039904;28;20053;-81
2021/11/03 09:58:24;;;;;;;7.38;1.10;;;;;;;7.12;88.43;100426.09;5057390;28;20789;-81
2021/11/03 10:01:16;;;;;;;3.78;0.88;;;;;;;7.14;88.32;100432.06;5043202;28;20040;-81
2021/11/03 10:04:10;;;;;;;7.20;1.77;;;;;;;7.18;88.13;100433.03;5064308;28;20071;-82
2021/11/03 10:06:51;;;;;;;2.75;0.60;;;;;;;7.21;88.27;100432.38;5039762;28;20094;-82
2021/11/03 10:09:18;;;;;;;5.35;0.70;;;;;;;7.27;88.33;100428.28;5044925;28;20048;-82
2021/11/03 10:11:49;;;;;;;3.17;0.85;;;;;;;7.27;87.93;100439.31;5053227;28;20072;-81
2021/11/03 10:14:16;;;;;;;6.43;1.17;;;;;;;7.26;87.77;100434.94;5058580;28;20071;-82
2021/11/03 10:16:54;;;;;;;1.90;0.88;;;;;;;7.25;87.67;100431.38;5060568;28;20052;-82
2021/11/03 10:19:32;;;;;;;5.72;0.82;;;;;;;7.26;87.51;100432.19;5018666;28;20091;-82
2021/11/03 10:22:22;;;;;;;3.42;1.15;;;;;;;7.31;87.41;100424.53;5036322;28;20060;-82
2021/11/03 10:25:12;;;;;;;3.05;0.90;;;;;;;7.36;87.28;100420.78;5042226;28;20500;-81
2021/11/03 10:27:47;;;;;;;2.50;0.75;;;;;;;7.42;86.71;100416.72;5041532;28;20125;-81
2021/11/03 10:30:24;;;;;;;1.85;0.70;;;;;;;7.49;86.76;100432.72;5054363;28;20108;-81
2021/11/03 10:32:53;;;;;;;5.10;1.10;;;;;;;7.57;86.34;100435.41;5062677;28;20040;-82
2021/11/03 10:35:41;;;;;;;5.47;1.33;;;;;;;7.61;85.71;100439.13;5051890;28;20044;-84
2021/11/03 10:38:21;;;;;;;3.25;0.43;;;;;;;7.66;86.06;100438.94;5052303;28;20049;-83
2021/11/03 10:40:58;;;;;;;4.25;0.57;;;;;;;7.72;86.03;100431.28;5045276;28;20079;-83
2021/11/03 10:43:39;;;;;;;3.20;1.10;;;;;;;7.75;85.30;100445.22;5040932;28;20064;-83
2021/11/03 10:46:14;;;;;;;3.72;0.90;;;;;;;7.81;85.87;100438.34;5052218;28;20135;-84
2021/11/03 10:48:43;;;;;;;5.40;0.88;;;;;;;7.86;85.85;100446.44;5035774;28;20566;-78
2021/11/03 10:51:32;;;;;;;4.85;0.70;;;;;;;7.91;84.95;100451.78;5057332;28;20575;-80
2021/11/03 10:54:16;;;;;;;3.00;1.42;;;;;;;7.96;84.41;100446.06;5056238;28;20045;-79
2021/11/03 10:57:30;;;;;;;5.07;1.23;;;;;;;8.03;84.43;100447.44;5041876;28;20044;-80
2021/11/03 11:00:25;;;;;;;7.22;0.90;;;;;;;8.06;83.89;100449.53;5022232;28;20044;-78
2021/11/03 11:02:58;;;;;;;3.03;0.77;;;;;;;8.12;84.35;100453.72;5023897;28;20053;-79
2021/11/03 11:05:28;;;;;;;2.78;0.65;;;;;;;8.18;84.01;100457.91;5054380;28;20123;-80
2021/11/03 11:08:05;;;;;;;6.45;1.35;;;;;;;8.24;83.21;100457.34;5049160;28;20103;-80
2021/11/03 11:10:45;;;;;;;2.88;0.60;;;;;;;8.32;83.45;100461.22;5054413;28;20052;-80
2021/11/03 11:13:20;;;;;;;3.70;0.50;;;;;;;8.34;83.14;100456.97;5060916;28;20040;-79
2021/11/03 11:16:08;;;;;;;6.25;1.13;;;;;;;8.35;82.29;100474.34;5040272;28;20041;-80
2021/11/03 11:18:37;;;;;;;4.25;0.90;;;;;;;8.36;83.14;100465.72;5034303;28;20115;-80
2021/11/03 11:21:33;;;;;;;4.50;1.25;;;;;;;8.38;82.56;100468.16;5034840;28;20052;-80
2021/11/03 11:24:08;;;;;;;6.03;1.45;;;;;;;8.41;82.99;100464.72;5059035;28;20056;-80
2021/11/03 11:26:54;;;;;;;2.22;0.38;;;;;;;8.44;81.99;100472.31;5054359;28;20047;-78
2021/11/03 11:29:40;;;;;;;6.47;2.20;;;;;;;8.50;82.11;100470.94;5046303;28;20452;-78
2021/11/03 11:32:25;;;;;;;5.32;1.15;;;;;;;8.60;82.31;100470.56;5047560;28;20053;-78
2021/11/03 11:34:54;;;;;;;3.75;2.20;;;;;;;8.68;82.08;100460.56;5051285;28;20075;-78
2021/11/03 11:37:21;;;;;;;1.60;0.50;;;;;;;8.73;82.25;100468.66;5051472;28;20488;-79
2021/11/03 11:40:17;;;;;;;7.38;0.93;;;;;;;8.77;81.59;100473.13;5054162;28;20144;-78
2021/11/03 11:42:50;;;;;;;2.85;0.47;;;;;;;8.76;81.34;100473.50;5054851;28;20060;-78
2021/11/03 11:45:21;;;;;;;4.82;1.38;;;;;;;8.79;81.67;100479.13;5042712;28;20129;-78
2021/11/03 11:47:54;;;;;;;3.93;1.23;;;;;;;8.81;81.74;100485.13;5055248;28;20097;-78
2021/11/03 11:50:24;;;;;;;1.50;0.60;;;;;;;8.84;81.14;100486.41;5039347;28;20601;-78
2021/11/03 11:52:52;;;;;;;3.80;0.35;;;;;;;8.85;81.15;100488.00;5061076;28;20328;-78